Ampthill, Virginia
Current Conditions -  °F | °C
As of 9:55 AM on Saturday 20 Dec 2014 (Local Time) from KFCI Reporting Station
Overcast Overcast  
Wind Chill: 28°   Ceiling: 12000
Heat Index: 34°   Visibility: 10mi
Dew Point: 16°   Wind: 7mph
Humidity: 48%   Direction: 40°NE
Pressure: 30.33"   Gusts: NA
Location:  37.4513°N, 77.4708°W
Report Text: KFCI 201455Z AUTO 04006KT 10SM OVC120 01/M09 A3033 RMK AO1 52007
Loading
Personal Weather Stations






























Interactive Weather Map New forecast layout! Learn more

10-Day Weather Forecast

Advertisements
Track Severe Weather on mobile